Terminal Aerodrome Forecast
Issued by NWS

Home | Current Version | Previous Version | Graphics & Text | Print | Product List | Glossary On
Versions: 1 2 3 4 5 6 7 8 9 10 11 12 13 14 15
000
FTUS45 KGGW 010500
TAFSDY
TAF
KSDY 010524Z 0106/0206 VRB06KT P6SM BKN150
     FM011500 09007KT P6SM FEW250
     FM020200 VRB06KT P6SM BKN150
      AMD LTD TO CLD VIS AND WIND=

USA.gov is the U.S. government's official web portal to all federal, state and local government web resources and services.